Time;durP1;ratioP1;P1;durP2;ratioP2;P2;SDS_P1;SDS_P2;PMS_P1;PMS_P2;Temp;Humidity;BMP_temperature;BMP_pressure;BME280_temperature;BME280_humidity;BME280_pressure;Samples;Min_cycle;Max_cycle;Signal;HPM_P1;HPM_P2
2022/05/14 00:02:13;;;;;;;6.50;2.30;;;;;;;15.10;68.98;99851.73;1761125;80;20947;-73
2022/05/14 00:04:41;;;;;;;3.98;2.27;;;;;;;15.10;69.16;99847.75;1758090;79;21870;-73
2022/05/14 00:07:08;;;;;;;4.33;2.30;;;;;;;15.07;69.06;99845.42;1775374;80;20966;-73
2022/05/14 00:09:35;;;;;;;3.17;2.10;;;;;;;15.05;69.06;99840.74;1777514;79;21077;-73
2022/05/14 00:14:48;;;;;;;4.15;2.33;;;;;;;15.05;69.07;99835.42;1759165;79;20979;-73
2022/05/14 00:17:15;;;;;;;3.77;2.22;;;;;;;15.05;69.08;99832.77;1770666;80;21889;-73
2022/05/14 00:19:42;;;;;;;3.83;2.35;;;;;;;15.05;69.19;99835.42;1749392;79;20982;-73
2022/05/14 00:22:09;;;;;;;3.87;2.15;;;;;;;15.08;69.18;99835.12;1745132;80;20998;-73
2022/05/14 00:24:37;;;;;;;4.87;2.40;;;;;;;15.11;69.30;99837.44;1759603;79;20951;-73
2022/05/14 00:27:04;;;;;;;4.92;2.40;;;;;;;15.12;69.36;99835.94;1770856;80;20943;-72
2022/05/14 00:29:31;;;;;;;5.72;2.37;;;;;;;15.13;69.39;99832.78;1774136;80;21771;-73
2022/05/14 00:31:58;;;;;;;4.15;2.25;;;;;;;15.13;69.42;99830.12;1774549;80;20935;-72
2022/05/14 00:34:25;;;;;;;4.70;2.10;;;;;;;15.13;69.44;99820.81;1773876;79;20955;-72
2022/05/14 00:36:52;;;;;;;2.98;2.27;;;;;;;15.13;69.34;99815.49;1769547;80;21018;-72
2022/05/14 00:39:19;;;;;;;3.22;1.87;;;;;;;15.14;68.67;99807.84;1745601;79;21057;-72
2022/05/14 00:41:48;;;;;;;4.72;2.10;;;;;;;15.19;68.31;99808.20;1745238;80;21782;-73
2022/05/14 00:44:15;;;;;;;5.37;2.33;;;;;;;15.22;68.17;99818.50;1759472;79;20963;-72
2022/05/14 00:46:48;;;;;;;5.28;1.85;;;;;;;15.24;68.21;99816.49;1758388;80;21041;-72
2022/05/14 00:49:17;;;;;;;7.30;2.25;;;;;;;15.27;68.12;99814.02;1758742;80;21458;-72
2022/05/14 00:51:46;;;;;;;4.03;2.00;;;;;;;15.28;67.84;99818.34;1775639;80;21474;-73
2022/05/14 00:54:16;;;;;;;3.22;2.00;;;;;;;15.30;67.70;99815.02;1758883;79;21785;-72
2022/05/14 00:56:49;;;;;;;3.25;1.95;;;;;;;15.34;67.61;99818.99;1768688;80;21002;-72
2022/05/14 00:59:19;;;;;;;4.00;1.87;;;;;;;15.36;67.41;99817.02;1745115;82;20971;-72
2022/05/14 01:01:46;;;;;;;4.70;1.67;;;;;;;15.39;67.29;99816.68;1749294;79;20968;-72
2022/05/14 01:04:14;;;;;;;4.28;1.70;;;;;;;15.39;66.71;99804.70;1773972;78;21435;-72
2022/05/14 01:06:49;;;;;;;9.28;1.60;;;;;;;15.37;66.37;99800.88;1758269;80;21852;-74
2022/05/14 01:09:17;;;;;;;4.30;1.77;;;;;;;15.38;66.15;99791.07;1756769;80;20941;-72
2022/05/14 01:11:44;;;;;;;4.03;1.98;;;;;;;15.39;65.93;99787.41;1756894;81;21012;-72
2022/05/14 01:14:12;;;;;;;4.28;1.98;;;;;;;15.37;65.75;99790.24;1762318;78;21032;-72
2022/05/14 01:16:40;;;;;;;3.20;1.80;;;;;;;15.38;65.80;99779.92;1780003;78;21522;-76
2022/05/14 01:19:07;;;;;;;4.95;2.00;;;;;;;15.37;66.05;99788.08;1787842;80;21818;-72
2022/05/14 01:22:27;;;;;;;8.70;2.90;;;;;;;15.35;66.02;99796.73;1760193;80;20988;-72
2022/05/14 01:28:07;;;;;;;8.70;2.58;;;;;;;15.31;65.71;99787.41;1759078;78;21008;-72
2022/05/14 01:30:44;;;;;;;6.72;2.22;;;;;;;15.26;65.77;99777.78;1757092;81;20988;-72
2022/05/14 01:33:11;;;;;;;4.30;2.50;;;;;;;15.25;65.72;99772.95;1758494;78;21869;-72
2022/05/14 01:35:40;;;;;;;6.00;2.30;;;;;;;15.24;65.63;99765.11;1757017;81;20966;-72
2022/05/14 01:38:08;;;;;;;6.87;2.20;;;;;;;15.23;65.66;99773.59;1758351;78;21008;-72
2022/05/14 01:40:35;;;;;;;4.60;2.30;;;;;;;15.19;65.62;99769.62;1754366;81;21083;-72
2022/05/14 01:43:03;;;;;;;4.47;2.10;;;;;;;15.21;65.66;99767.62;1763696;78;21068;-72
2022/05/14 01:45:32;;;;;;;3.95;1.90;;;;;;;15.22;65.67;99763.95;1757308;80;23087;-72
2022/05/14 01:48:00;;;;;;;3.27;1.92;;;;;;;15.25;65.65;99765.44;1758390;80;20996;-73
2022/05/14 01:50:27;;;;;;;6.92;2.10;;;;;;;15.26;65.71;99764.48;1757061;81;21530;-72
2022/05/14 01:52:54;;;;;;;4.75;2.00;;;;;;;15.26;65.82;99762.64;1760342;78;21046;-73
2022/05/14 01:55:22;;;;;;;4.10;2.30;;;;;;;15.24;65.77;99757.96;1782754;80;21004;-73
2022/05/14 01:57:50;;;;;;;3.55;2.17;;;;;;;15.22;65.71;99755.97;1774584;78;21727;-72
2022/05/14 02:00:18;;;;;;;3.92;2.17;;;;;;;15.21;65.70;99755.64;1779213;80;21415;-72
2022/05/14 02:02:50;;;;;;;4.12;2.40;;;;;;;15.22;65.76;99759.13;1778961;80;21012;-73
2022/05/14 02:05:17;;;;;;;4.92;2.35;;;;;;;15.23;65.79;99756.80;1769279;80;21005;-72
2022/05/14 02:07:44;;;;;;;4.53;2.40;;;;;;;15.22;65.79;99757.30;1746054;80;20953;-72
2022/05/14 02:10:12;;;;;;;4.45;2.33;;;;;;;15.21;65.76;99751.66;1745063;82;22525;-72
2022/05/14 02:12:40;;;;;;;5.28;2.20;;;;;;;15.19;65.81;99747.01;1745337;80;21048;-72
2022/05/14 02:15:09;;;;;;;6.87;2.08;;;;;;;15.17;65.81;99740.53;1775325;80;20985;-73
2022/05/14 02:17:36;;;;;;;5.28;2.27;;;;;;;15.18;65.87;99738.20;1767038;80;20961;-72
2022/05/14 02:20:06;;;;;;;3.62;2.17;;;;;;;15.21;65.91;99744.17;1745011;82;21009;-72
2022/05/14 02:22:33;;;;;;;6.37;2.50;;;;;;;15.22;65.91;99733.86;1747873;80;22588;-72
2022/05/14 02:25:00;;;;;;;6.33;1.98;;;;;;;15.22;66.03;99736.02;1775650;80;20989;-72
2022/05/14 02:27:27;;;;;;;7.62;1.95;;;;;;;15.22;66.15;99737.35;1770477;80;21072;-72
2022/05/14 02:29:56;;;;;;;6.17;2.47;;;;;;;15.24;66.19;99742.50;1747734;82;20957;-72
2022/05/14 02:32:25;;;;;;;5.08;2.30;;;;;;;15.24;66.31;99747.32;1749170;80;20933;-72
2022/05/14 02:34:53;;;;;;;6.37;2.02;;;;;;;15.20;66.47;99747.84;1771342;80;22742;-72
2022/05/14 02:37:24;;;;;;;3.12;1.82;;;;;;;15.16;66.68;99733.55;1788159;80;20979;-73
2022/05/14 02:39:52;;;;;;;5.80;2.00;;;;;;;15.13;66.82;99733.86;1775845;80;21526;-72
2022/05/14 02:42:20;;;;;;;5.20;2.25;;;;;;;15.12;67.06;99730.05;1770533;80;21095;-73
2022/05/14 02:44:47;;;;;;;5.28;2.40;;;;;;;15.11;67.18;99728.38;1773199;80;21404;-72
2022/05/14 02:47:15;;;;;;;4.00;2.17;;;;;;;15.12;67.27;99724.22;1771581;80;21721;-73
2022/05/14 02:49:42;;;;;;;6.22;2.17;;;;;;;15.12;67.27;99722.06;1744936;82;21467;-72
2022/05/14 02:52:10;;;;;;;4.55;2.20;;;;;;;15.12;67.41;99720.73;1745398;80;21453;-77
2022/05/14 02:54:37;;;;;;;4.72;2.60;;;;;;;15.13;67.48;99723.72;1746464;80;21153;-72
2022/05/14 02:57:05;;;;;;;6.15;2.60;;;;;;;15.09;67.62;99724.56;1715758;81;21044;-73
2022/05/14 02:59:33;;;;;;;5.20;2.67;;;;;;;15.09;67.70;99729.05;1747436;80;22877;-73
2022/05/14 03:02:00;;;;;;;7.20;2.60;;;;;;;15.11;67.75;99740.35;1753567;80;21522;-73
2022/05/14 03:04:29;;;;;;;5.22;2.50;;;;;;;15.11;67.80;99741.18;1769942;79;21424;-73
2022/05/14 03:06:58;;;;;;;4.22;2.52;;;;;;;15.14;67.85;99738.68;1742655;79;21473;-73
2022/05/14 03:09:25;;;;;;;6.15;2.67;;;;;;;15.13;68.31;99745.00;1750039;80;20996;-73
2022/05/14 03:11:52;;;;;;;5.80;2.55;;;;;;;15.08;68.82;99756.16;1762519;79;21808;-75
2022/05/14 03:14:20;;;;;;;6.45;2.67;;;;;;;15.04;69.21;99759.30;1749726;79;21122;-75
2022/05/14 03:16:47;;;;;;;5.70;2.75;;;;;;;15.01;69.50;99759.13;1753589;80;21435;-74
2022/05/14 03:19:15;;;;;;;5.65;2.60;;;;;;;15.01;69.67;99758.30;1761274;80;20965;-74
2022/05/14 03:21:42;;;;;;;6.03;3.10;;;;;;;15.01;69.83;99751.16;1747307;82;21020;-73
2022/05/14 03:24:10;;;;;;;6.50;3.40;;;;;;;15.01;69.89;99750.33;1768332;79;21867;-73
2022/05/14 03:26:39;;;;;;;6.15;2.80;;;;;;;15.04;69.91;99758.80;1765545;79;20944;-73
2022/05/14 03:29:07;;;;;;;6.22;3.05;;;;;;;15.06;69.91;99762.64;1779500;79;20943;-73
2022/05/14 03:31:34;;;;;;;6.12;3.20;;;;;;;15.06;69.97;99771.95;1776653;79;20994;-73
2022/05/14 03:34:02;;;;;;;7.10;3.40;;;;;;;15.07;70.09;99774.94;1759937;80;21076;-73
2022/05/14 03:36:29;;;;;;;11.40;4.50;;;;;;;15.03;70.42;99772.27;1759507;80;21788;-73
2022/05/14 03:38:56;;;;;;;8.70;4.22;;;;;;;14.96;70.89;99762.80;1761478;79;21036;-73
2022/05/14 03:41:24;;;;;;;6.70;4.12;;;;;;;14.88;71.34;99760.96;1742730;81;21524;-73
2022/05/14 03:43:51;;;;;;;9.00;4.22;;;;;;;14.85;71.59;99772.41;1761335;79;21013;-73
2022/05/14 03:46:18;;;;;;;5.37;3.72;;;;;;;14.84;71.81;99774.23;1763755;81;20970;-73
2022/05/14 03:48:46;;;;;;;7.10;3.80;;;;;;;14.83;72.07;99761.11;1755554;79;21793;-74
2022/05/14 03:51:13;;;;;;;7.25;3.65;;;;;;;14.82;72.32;99759.45;1711127;79;21031;-73
2022/05/14 03:53:41;;;;;;;6.58;3.30;;;;;;;14.80;72.50;99763.60;1762653;80;21072;-73
2022/05/14 03:56:08;;;;;;;12.28;3.60;;;;;;;14.76;72.83;99754.77;1759314;79;21067;-73
2022/05/14 03:58:35;;;;;;;4.75;3.15;;;;;;;14.66;73.33;99748.27;1755718;79;21010;-73
2022/05/14 04:01:03;;;;;;;9.98;3.30;;;;;;;14.56;73.79;99743.61;1762510;80;21929;-72
2022/05/14 04:03:32;;;;;;;8.78;3.70;;;;;;;14.47;74.21;99734.77;1758876;81;21069;-73
2022/05/14 04:06:00;;;;;;;5.87;3.50;;;;;;;14.43;74.61;99723.29;1751280;81;21042;-79
2022/05/14 04:08:27;;;;;;;7.95;3.37;;;;;;;14.41;74.99;99732.75;1733648;81;20997;-70
2022/05/14 04:10:54;;;;;;;5.95;3.60;;;;;;;14.40;75.36;99735.58;1739935;80;21587;-75
2022/05/14 04:13:21;;;;;;;9.20;4.03;;;;;;;14.40;75.64;99739.56;1744018;81;22460;-71
2022/05/14 04:15:48;;;;;;;7.42;3.80;;;;;;;14.39;76.08;99737.91;1724913;81;21579;-72
2022/05/14 04:18:20;;;;;;;6.87;3.87;;;;;;;14.39;76.54;99729.44;1738418;81;21108;-72
2022/05/14 04:20:45;;;;;;;6.00;4.00;;;;;;;14.39;76.99;99716.65;1723862;81;20997;-72
2022/05/14 04:23:12;;;;;;;5.78;4.28;;;;;;;14.40;77.40;99705.03;1728770;81;21024;-72
2022/05/14 04:25:39;;;;;;;8.08;4.28;;;;;;;14.41;77.75;99673.48;1754147;81;21829;-72
2022/05/14 04:28:07;;;;;;;6.78;4.05;;;;;;;14.44;78.01;99659.35;1745740;81;21026;-72
2022/05/14 04:30:34;;;;;;;9.20;4.50;;;;;;;14.48;78.47;99650.61;1751833;81;21013;-72
2022/05/14 04:33:01;;;;;;;11.48;4.05;;;;;;;14.48;78.70;99643.97;1753183;81;21066;-72
2022/05/14 04:35:28;;;;;;;6.05;4.30;;;;;;;14.46;78.98;99648.59;1724194;83;20982;-72
2022/05/14 04:37:56;;;;;;;8.60;4.70;;;;;;;14.47;79.27;99650.25;1728444;81;21796;-72
2022/05/14 04:40:23;;;;;;;6.80;4.20;;;;;;;14.46;79.49;99665.86;1752504;81;21070;-72
2022/05/14 04:42:50;;;;;;;6.83;4.67;;;;;;;14.48;79.75;99674.52;1752606;81;21480;-72
2022/05/14 04:45:18;;;;;;;7.35;4.47;;;;;;;14.50;79.94;99698.60;1725492;81;21025;-72
2022/05/14 04:47:45;;;;;;;10.50;5.08;;;;;;;14.53;80.17;99701.42;1730450;81;21049;-75
2022/05/14 04:50:14;;;;;;;5.05;3.80;;;;;;;14.54;80.30;99706.56;1749710;80;21840;-72
2022/05/14 04:52:41;;;;;;;7.55;5.08;;;;;;;14.58;80.36;99705.77;1754160;81;21017;-72
2022/05/14 04:55:09;;;;;;;7.85;5.10;;;;;;;14.59;80.51;99719.37;1737463;81;21017;-72
2022/05/14 04:57:38;;;;;;;8.60;4.53;;;;;;;14.62;80.65;99723.03;1750753;80;20985;-72
2022/05/14 05:00:07;;;;;;;6.95;5.30;;;;;;;14.65;80.85;99720.53;1751204;81;20938;-72
2022/05/14 05:05:21;;;;;;;8.75;5.17;;;;;;;14.69;81.05;99733.34;1753899;80;21077;-72
2022/05/14 05:07:48;;;;;;;6.95;5.33;;;;;;;14.72;81.07;99738.33;1774030;80;21009;-73
2022/05/14 05:10:16;;;;;;;9.43;5.70;;;;;;;14.77;81.21;99741.84;1780896;79;21068;-72
2022/05/14 05:12:44;;;;;;;7.08;5.22;;;;;;;14.84;81.25;99736.18;1769950;79;21080;-73
2022/05/14 05:15:11;;;;;;;7.67;5.40;;;;;;;14.93;81.42;99735.19;1789790;80;21741;-72
2022/05/14 05:17:38;;;;;;;6.95;5.70;;;;;;;15.01;81.35;99721.91;1759776;80;21046;-72
2022/05/14 05:20:07;;;;;;;7.87;5.42;;;;;;;15.08;81.25;99730.05;1771707;81;21098;-73
2022/05/14 05:22:35;;;;;;;8.90;5.30;;;;;;;15.12;81.05;99726.88;1783787;79;21385;-75
2022/05/14 05:25:01;;;;;;;6.20;5.10;;;;;;;15.15;81.01;99729.23;1767104;80;21103;-72
2022/05/14 05:27:31;;;;;;;6.65;5.25;;;;;;;15.25;80.98;99727.73;1769596;80;21834;-74
2022/05/14 05:29:58;;;;;;;8.13;4.95;;;;;;;15.34;80.97;99729.35;1755149;79;21068;-73
2022/05/14 05:32:26;;;;;;;8.03;5.50;;;;;;;15.44;80.83;99723.84;1771272;79;21023;-75
2022/05/14 05:34:53;;;;;;;8.28;5.42;;;;;;;15.51;80.57;99724.84;1764177;80;21507;-71
2022/05/14 05:37:20;;;;;;;8.70;4.78;;;;;;;15.55;80.31;99708.05;1775366;79;21072;-74
2022/05/14 05:39:47;;;;;;;8.70;4.92;;;;;;;15.60;80.21;99715.88;1745914;80;21827;-73
2022/05/14 05:42:14;;;;;;;6.17;4.87;;;;;;;15.65;79.91;99724.70;1774570;78;21447;-74
2022/05/14 05:44:41;;;;;;;8.15;4.85;;;;;;;15.63;79.47;99728.01;1728943;83;21052;-73
2022/05/14 05:47:08;;;;;;;6.97;4.30;;;;;;;15.63;79.31;99723.55;1755740;79;20968;-76
2022/05/14 05:49:38;;;;;;;8.25;4.60;;;;;;;15.64;79.10;99737.69;1775030;80;21075;-73
2022/05/14 05:52:05;;;;;;;5.78;4.12;;;;;;;15.62;78.85;99743.15;1751742;81;21889;-74
2022/05/14 05:57:17;;;;;;;6.35;4.20;;;;;;;15.71;78.89;99730.66;1757200;79;21560;-71
2022/05/14 05:59:45;;;;;;;6.78;3.77;;;;;;;15.80;78.90;99728.80;1779727;79;20980;-72
2022/05/14 06:02:12;;;;;;;5.97;3.72;;;;;;;15.89;78.93;99732.59;1785581;78;21038;-73
2022/05/14 06:04:40;;;;;;;7.75;4.10;;;;;;;16.01;78.83;99731.22;1787206;80;22422;-73
2022/05/14 06:07:16;;;;;;;6.85;3.60;;;;;;;16.07;78.41;99727.05;1774956;79;21011;-72
2022/05/14 06:09:46;;;;;;;5.58;3.65;;;;;;;16.14;78.15;99731.19;1784165;79;21502;-71
2022/05/14 06:12:15;;;;;;;5.05;3.70;;;;;;;16.23;77.59;99726.98;1784247;79;21675;-75
2022/05/14 06:14:43;;;;;;;4.45;3.60;;;;;;;16.29;76.97;99727.59;1777968;80;21003;-73
2022/05/14 06:17:11;;;;;;;5.62;3.60;;;;;;;16.30;76.37;99723.92;1759227;79;21533;-73
2022/05/14 06:19:38;;;;;;;7.37;3.47;;;;;;;16.37;76.26;99720.07;1785382;79;21407;-73
2022/05/14 06:22:05;;;;;;;5.42;3.42;;;;;;;16.41;75.79;99721.40;1780529;79;21498;-72
2022/05/14 06:24:32;;;;;;;5.45;2.98;;;;;;;16.40;75.24;99722.38;1783951;79;21002;-73
2022/05/14 06:26:59;;;;;;;5.37;3.45;;;;;;;16.40;74.80;99715.72;1766741;79;21010;-70
2022/05/14 06:29:26;;;;;;;5.85;3.37;;;;;;;16.38;74.73;99715.06;1775370;79;22577;-74
2022/05/14 06:31:53;;;;;;;6.67;3.35;;;;;;;16.41;74.82;99717.91;1784745;79;20983;-71
2022/05/14 06:34:22;;;;;;;5.47;3.33;;;;;;;16.47;74.89;99725.18;1780330;80;20989;-70
2022/05/14 06:36:50;;;;;;;7.12;3.10;;;;;;;16.52;74.46;99731.66;1763679;79;21008;-72
2022/05/14 06:39:18;;;;;;;4.72;3.37;;;;;;;16.52;73.90;99727.66;1786109;80;21046;-69
2022/05/14 06:41:45;;;;;;;5.42;3.15;;;;;;;16.52;73.96;99720.17;1778263;78;22004;-69
2022/05/14 06:44:13;;;;;;;5.97;3.17;;;;;;;16.58;74.19;99728.27;1782712;80;21032;-70
2022/05/14 06:46:40;;;;;;;4.47;3.22;;;;;;;16.62;73.83;99719.94;1740253;80;21050;-71
2022/05/14 06:49:07;;;;;;;5.72;3.70;;;;;;;16.69;73.97;99718.23;1801764;79;21006;-71
2022/05/14 06:51:34;;;;;;;4.85;3.10;;;;;;;16.79;73.85;99721.50;1779858;79;21292;-69
2022/05/14 06:54:05;;;;;;;5.15;3.12;;;;;;;16.84;73.61;99721.30;1780391;79;21867;-69
2022/05/14 06:56:33;;;;;;;5.67;3.30;;;;;;;16.91;73.64;99725.94;1787352;79;20985;-71
2022/05/14 06:59:00;;;;;;;5.40;2.80;;;;;;;16.99;73.51;99718.70;1798528;79;21016;-70
2022/05/14 07:01:28;;;;;;;6.00;3.02;;;;;;;17.06;73.21;99719.63;1776574;79;21241;-72
2022/05/14 07:06:46;;;;;;;5.17;3.05;;;;;;;17.07;72.47;99710.61;1790259;78;21815;-69
2022/05/14 07:09:27;;;;;;;4.67;2.30;;;;;;;17.13;72.56;99705.89;1781204;79;21087;-71
2022/05/14 07:12:00;;;;;;;5.28;2.40;;;;;;;17.23;72.75;99704.81;1781351;79;21521;-73
2022/05/14 07:14:29;;;;;;;4.87;2.52;;;;;;;17.36;72.77;99714.35;1799235;79;21024;-74
2022/05/14 07:16:56;;;;;;;6.40;2.67;;;;;;;17.39;72.03;99709.50;1775117;79;21051;-71
2022/05/14 07:19:25;;;;;;;4.80;2.65;;;;;;;17.44;71.90;99712.44;1781391;79;21932;-72
2022/05/14 07:21:53;;;;;;;4.65;2.35;;;;;;;17.52;71.90;99715.53;1783604;78;21088;-71
2022/05/14 07:24:24;;;;;;;3.10;2.30;;;;;;;17.63;71.61;99708.91;1782946;78;21059;-72
2022/05/14 07:26:53;;;;;;;2.77;2.17;;;;;;;17.76;71.54;99709.63;1784270;79;21514;-73
2022/05/14 07:29:23;;;;;;;8.03;2.25;;;;;;;17.93;71.38;99709.77;1791187;78;21053;-71
2022/05/14 07:31:52;;;;;;;4.28;2.15;;;;;;;18.05;70.98;99703.44;1759497;79;42497;-72
2022/05/14 07:34:19;;;;;;;4.72;2.00;;;;;;;18.14;70.38;99700.98;1773379;79;21071;-73
2022/05/14 07:36:58;;;;;;;3.42;1.92;;;;;;;18.26;69.71;99696.33;1782715;79;20964;-70
2022/05/14 07:39:29;;;;;;;5.53;2.10;;;;;;;18.34;69.75;99694.56;1785389;78;20961;-71
2022/05/14 07:41:58;;;;;;;3.37;2.00;;;;;;;18.38;68.83;99697.17;1785106;78;20988;-71
2022/05/14 07:44:29;;;;;;;4.00;1.90;;;;;;;18.37;68.75;99692.84;1769580;80;21921;-71
2022/05/14 07:46:57;;;;;;;4.10;2.10;;;;;;;18.32;67.98;99686.70;1763479;80;21424;-71
2022/05/14 07:49:24;;;;;;;4.83;1.90;;;;;;;18.30;68.65;99690.09;1755105;80;21003;-72
2022/05/14 07:51:53;;;;;;;2.90;1.82;;;;;;;18.28;68.42;99688.11;1762637;78;21039;-73
2022/05/14 07:54:20;;;;;;;2.90;1.80;;;;;;;18.31;67.95;99696.58;1765408;78;20964;-72
2022/05/14 07:56:48;;;;;;;3.20;1.70;;;;;;;18.42;67.56;99690.41;1762323;80;21603;-73
2022/05/14 07:59:16;;;;;;;4.28;1.92;;;;;;;18.62;66.99;99690.63;1762685;80;21032;-72
2022/05/14 08:01:43;;;;;;;3.60;2.00;;;;;;;18.76;66.81;99696.47;1730070;80;20980;-84
2022/05/14 08:04:11;;;;;;;3.35;1.80;;;;;;;18.87;66.85;99694.11;1756411;80;21021;-71
2022/05/14 08:06:38;;;;;;;3.25;1.90;;;;;;;19.00;67.02;99689.88;1762285;80;21484;-73
2022/05/14 08:09:05;;;;;;;4.45;2.12;;;;;;;19.00;65.07;99695.23;1784721;78;21922;-76
2022/05/14 08:11:33;;;;;;;2.22;1.80;;;;;;;18.98;65.08;99689.25;1787885;80;21518;-74
2022/05/14 08:14:01;;;;;;;3.12;1.90;;;;;;;19.12;65.93;99687.02;1788130;80;20949;-74
2022/05/14 08:16:31;;;;;;;3.55;2.02;;;;;;;19.20;65.06;99679.33;1760115;80;20961;-73
2022/05/14 08:18:58;;;;;;;3.05;1.82;;;;;;;19.18;63.60;99682.72;1788430;80;20964;-73
2022/05/14 08:24:30;;;;;;;5.78;1.80;;;;;;;19.29;64.41;99674.98;1788346;80;21388;-75
2022/05/14 08:27:03;;;;;;;4.80;2.00;;;;;;;19.54;64.24;99673.20;1788196;80;21416;-73
2022/05/14 08:29:30;;;;;;;5.95;1.70;;;;;;;19.71;62.61;99670.55;1761760;80;20980;-76
2022/05/14 08:31:59;;;;;;;4.25;2.20;;;;;;;19.76;61.97;99658.71;1788178;80;20972;-72
2022/05/14 08:34:27;;;;;;;3.75;1.75;;;;;;;19.88;61.71;99659.83;1760573;80;22840;-78
2022/05/14 08:36:55;;;;;;;2.05;1.50;;;;;;;19.91;60.48;99661.27;1788010;80;20944;-82
2022/05/14 08:39:23;;;;;;;3.00;1.40;;;;;;;19.85;60.53;99652.16;1788132;80;21431;-84
2022/05/14 08:41:51;;;;;;;3.98;1.50;;;;;;;19.84;59.84;99649.17;1788555;80;20967;-74
2022/05/14 08:44:27;;;;;;;2.90;1.60;;;;;;;19.84;58.82;99645.15;1788253;80;21004;-74
2022/05/14 08:46:58;;;;;;;2.67;1.35;;;;;;;19.87;59.25;99638.05;1787608;79;22551;-73
2022/05/14 08:49:44;;;;;;;2.95;1.80;;;;;;;19.98;58.96;99636.16;1788046;80;20948;-74
2022/05/14 08:52:17;;;;;;;2.67;1.50;;;;;;;20.10;59.11;99631.03;1787450;80;20941;-73
2022/05/14 08:54:44;;;;;;;3.70;1.60;;;;;;;20.29;57.52;99625.41;1788654;80;20988;-76
2022/05/14 08:57:39;;;;;;;3.40;1.67;;;;;;;20.52;57.33;99625.06;1788091;80;21444;-72
2022/05/14 09:00:07;;;;;;;5.40;1.60;;;;;;;20.72;56.51;99617.85;1788090;80;22547;-75
2022/05/14 09:02:47;;;;;;;2.67;1.62;;;;;;;20.89;55.99;99609.40;1788329;80;21423;-72
2022/05/14 09:05:25;;;;;;;3.20;1.50;;;;;;;20.90;55.22;99607.02;1788255;80;20952;-71
2022/05/14 09:07:53;;;;;;;3.33;1.65;;;;;;;20.89;54.56;99598.14;1788153;80;21139;-70
2022/05/14 09:10:27;;;;;;;3.65;1.52;;;;;;;20.88;54.21;99607.23;1785689;80;20949;-71
2022/05/14 09:13:01;;;;;;;3.17;1.70;;;;;;;20.86;53.98;99599.39;1782151;80;21818;-73
2022/05/14 09:18:59;;;;;;;3.72;1.90;;;;;;;21.01;54.48;99599.67;1782558;80;20903;-70
2022/05/14 09:21:35;;;;;;;4.47;1.72;;;;;;;21.06;53.95;99588.63;1782213;80;20941;-69
2022/05/14 09:24:13;;;;;;;5.30;1.90;;;;;;;21.07;53.77;99592.97;1782425;80;20965;-70
2022/05/14 09:26:41;;;;;;;3.70;1.80;;;;;;;20.99;53.49;99579.75;1757029;80;22571;-69
2022/05/14 09:29:27;;;;;;;3.92;1.80;;;;;;;20.89;53.31;99584.72;1782108;80;20949;-69
2022/05/14 09:32:20;;;;;;;3.75;1.70;;;;;;;20.81;53.56;99584.92;1782138;80;20985;-69
2022/05/14 09:34:48;;;;;;;6.05;1.90;;;;;;;20.77;54.16;99586.39;1782496;80;20929;-72
2022/05/14 09:37:20;;;;;;;3.50;1.80;;;;;;;20.76;54.13;99589.59;1754520;80;20957;-73
2022/05/14 09:39:58;;;;;;;5.37;1.98;;;;;;;20.73;53.11;99589.16;1782570;80;22507;-72
2022/05/14 09:42:35;;;;;;;4.33;1.62;;;;;;;20.75;53.28;99589.77;1754471;80;21392;-73
2022/05/14 09:45:02;;;;;;;4.37;1.82;;;;;;;20.78;52.44;99594.23;1778117;80;20942;-70
2022/05/14 09:51:06;;;;;;;3.08;1.57;;;;;;;20.84;52.65;99590.73;1782625;80;20989;-71
2022/05/14 09:53:37;;;;;;;9.10;1.70;;;;;;;20.82;52.99;99595.45;1782188;80;21960;-70
2022/05/14 09:56:19;;;;;;;9.73;2.33;;;;;;;20.85;54.35;99604.97;1754413;80;21001;-71
2022/05/14 09:59:10;;;;;;;3.70;1.90;;;;;;;20.81;54.62;99606.40;1782796;80;21425;-70
2022/05/14 10:01:46;;;;;;;5.87;1.90;;;;;;;20.70;55.64;99627.15;1782103;80;21682;-69
2022/05/14 10:04:31;;;;;;;5.75;1.87;;;;;;;20.39;54.99;99639.77;1782234;80;21408;-69
2022/05/14 10:07:12;;;;;;;4.70;1.82;;;;;;;19.85;55.85;99643.30;1782279;80;21914;-70
2022/05/14 10:10:13;;;;;;;5.50;1.92;;;;;;;19.32;57.44;99657.20;1779034;80;20938;-68
2022/05/14 10:12:44;;;;;;;3.02;1.35;;;;;;;18.66;57.71;99654.50;1782271;80;21402;-71
2022/05/14 10:15:36;;;;;;;3.58;1.55;;;;;;;17.82;58.11;99661.65;1782240;80;20934;-73
2022/05/14 10:18:36;;;;;;;4.15;1.40;;;;;;;17.35;59.36;99648.13;1782436;80;20965;-72
2022/05/14 10:21:40;;;;;;;3.10;1.30;;;;;;;17.08;58.42;99618.05;1782246;80;21921;-72
2022/05/14 10:27:28;;;;;;;3.25;1.50;;;;;;;17.26;59.76;99615.03;1782150;80;20946;-72
2022/05/14 10:30:20;;;;;;;5.45;1.80;;;;;;;17.34;61.10;99617.62;1782515;80;20944;-72
2022/05/14 10:32:51;;;;;;;6.12;2.08;;;;;;;17.42;62.18;99617.02;1782162;80;21489;-71
2022/05/14 10:35:34;;;;;;;6.67;2.10;;;;;;;17.48;62.82;99607.97;1782542;80;21797;-71
2022/05/14 10:38:09;;;;;;;9.03;1.90;;;;;;;17.56;62.70;99606.52;1782316;80;20993;-71
2022/05/14 10:40:46;;;;;;;3.20;1.90;;;;;;;17.61;62.65;99605.46;1774444;80;21176;-74
2022/05/14 10:43:32;;;;;;;4.80;1.80;;;;;;;17.74;63.65;99609.15;1782161;80;20937;-74
2022/05/14 10:45:59;;;;;;;6.45;2.02;;;;;;;18.00;64.62;99615.33;1782387;80;20973;-71
2022/05/14 10:49:09;;;;;;;4.47;2.45;;;;;;;18.29;64.38;99614.41;1782150;80;21897;-73
2022/05/14 10:51:48;;;;;;;7.50;2.22;;;;;;;18.46;63.90;99614.16;1782156;80;20989;-70
2022/05/14 10:54:16;;;;;;;6.05;2.37;;;;;;;18.73;64.03;99612.59;1782167;80;20941;-71
2022/05/14 10:57:00;;;;;;;5.83;2.25;;;;;;;19.02;63.22;99614.27;1782105;80;21428;-70
2022/05/14 10:59:35;;;;;;;6.85;2.17;;;;;;;19.40;64.11;99609.36;1744131;80;20988;-71
2022/05/14 11:02:27;;;;;;;5.78;2.25;;;;;;;19.99;64.67;99606.16;1782047;80;21807;-70
2022/05/14 11:04:54;;;;;;;5.25;2.50;;;;;;;20.54;62.62;99596.98;1774243;80;21017;-70
2022/05/14 11:07:30;;;;;;;9.23;2.42;;;;;;;21.06;60.49;99602.05;1782069;80;21381;-72
2022/05/14 11:10:14;;;;;;;4.47;2.50;;;;;;;21.37;57.21;99593.86;1782100;80;21045;-73
2022/05/14 11:12:42;;;;;;;5.47;2.60;;;;;;;21.59;56.38;99587.17;1765200;80;21424;-70
2022/05/14 11:15:29;;;;;;;6.10;2.33;;;;;;;21.87;57.08;99587.37;1782264;80;21798;-68
2022/05/14 11:18:06;;;;;;;6.15;2.40;;;;;;;22.18;55.14;99588.78;1782419;80;21405;-68
2022/05/14 11:20:33;;;;;;;5.35;2.55;;;;;;;22.49;53.99;99592.01;1781786;80;21452;-69
2022/05/14 11:23:12;;;;;;;5.85;2.50;;;;;;;22.70;55.20;99587.30;1782386;80;20962;-71
2022/05/14 11:25:40;;;;;;;6.67;2.40;;;;;;;23.09;54.32;99580.75;1782158;80;20938;-69
2022/05/14 11:28:18;;;;;;;4.35;1.92;;;;;;;23.43;52.58;99577.47;1782382;80;22448;-69
2022/05/14 11:30:55;;;;;;;5.42;2.30;;;;;;;23.56;50.61;99575.69;1782061;80;20941;-69
2022/05/14 11:33:31;;;;;;;4.17;1.80;;;;;;;23.35;45.30;99577.76;1782383;80;20985;-70
2022/05/14 11:36:06;;;;;;;8.25;1.75;;;;;;;23.08;41.69;99585.32;1781548;80;20937;-70
2022/05/14 11:38:36;;;;;;;4.15;2.00;;;;;;;23.09;40.79;99583.45;1780592;80;20958;-69
2022/05/14 11:41:13;;;;;;;4.62;1.75;;;;;;;23.24;41.81;99577.16;1782460;80;22485;-70
2022/05/14 11:43:47;;;;;;;3.83;1.60;;;;;;;23.46;40.73;99581.61;1779781;80;21001;-71
2022/05/14 11:46:42;;;;;;;5.73;1.87;;;;;;;23.68;38.63;99576.60;1782460;80;21451;-68
2022/05/14 11:49:24;;;;;;;3.45;1.50;;;;;;;23.95;36.70;99575.21;1782440;80;20953;-70
2022/05/14 11:52:09;;;;;;;4.20;1.37;;;;;;;24.01;33.71;99574.80;1782045;80;21432;-71
2022/05/14 11:54:58;;;;;;;5.33;1.62;;;;;;;23.88;35.16;99570.42;1782453;80;21863;-75
2022/05/14 11:57:36;;;;;;;4.85;2.20;;;;;;;23.90;35.89;99579.10;1762457;80;21405;-75
2022/05/14 12:00:19;;;;;;;4.53;1.90;;;;;;;24.01;35.76;99572.11;1782249;80;21016;-76
2022/05/14 12:03:14;;;;;;;6.62;2.20;;;;;;;24.10;36.11;99576.13;1782000;80;20937;-73
2022/05/14 12:06:21;;;;;;;6.03;2.45;;;;;;;24.28;36.36;99577.95;1782254;80;21420;-80
2022/05/14 12:09:06;;;;;;;9.83;2.80;;;;;;;24.50;36.85;99580.44;1782167;80;21809;-77
2022/05/14 12:11:45;;;;;;;4.10;2.10;;;;;;;24.80;37.71;99583.59;1781265;80;21423;-74
2022/05/14 12:14:18;;;;;;;8.58;2.30;;;;;;;25.04;34.19;99585.81;1782224;80;20985;-76
2022/05/14 12:16:54;;;;;;;4.80;1.92;;;;;;;25.03;34.03;99590.40;1782389;80;20988;-77
2022/05/14 12:19:36;;;;;;;6.20;1.87;;;;;;;24.79;31.45;99596.27;1782096;80;20945;-73
2022/05/14 12:22:17;;;;;;;10.98;1.90;;;;;;;24.31;32.74;99591.01;1782582;80;21854;-73